Ambridge, Pennsylvania
Current Conditions -  °F | °C
As of 2:51 PM on Sunday 25 Jan 2015 (Local Time) from KPIT Reporting Station
Light Snow Light Snow  
Wind Chill: 35°   Ceiling: 1000
Heat Index: 35°   Visibility: 2mi
Dew Point: 32°   Wind: 0mph
Humidity: 89%   Direction: NA
Pressure: 29.77"   Gusts: NA
Location:  40.59°N, 80.23°W
Report Text: KPIT 251951Z 00000KT 2SM -SN BR OVC010 02/00 A2977 RMK AO2 SFC VIS 3 DZE49SNB06 SLP098 P0001 T00170000
Loading
Personal Weather Stations






























Interactive Weather Map New forecast layout! Learn more

10-Day Weather Forecast

Advertisements
Track Severe Weather on mobile